sensor_id;sensor_type;location;lat;lon;timestamp;P1;durP1;ratioP1;P2;durP2;ratioP2
30247;SDS011;17063;50.892;4.702;2023-03-16T00:00:15;4.40;;;2.50;;
30247;SDS011;17063;50.892;4.702;2023-03-16T00:02:42;4.43;;;2.33;;
30247;SDS011;17063;50.892;4.702;2023-03-16T00:05:10;3.73;;;1.97;;
30247;SDS011;17063;50.892;4.702;2023-03-16T00:07:38;4.10;;;1.90;;
30247;SDS011;17063;50.892;4.702;2023-03-16T00:10:08;6.43;;;2.70;;
30247;SDS011;17063;50.892;4.702;2023-03-16T00:12:37;4.93;;;2.07;;
30247;SDS011;17063;50.892;4.702;2023-03-16T00:15:05;2.43;;;1.93;;
30247;SDS011;17063;50.892;4.702;2023-03-16T00:17:32;4.13;;;2.00;;
30247;SDS011;17063;50.892;4.702;2023-03-16T00:20:00;4.10;;;1.93;;
30247;SDS011;17063;50.892;4.702;2023-03-16T00:22:31;3.30;;;1.83;;
30247;SDS011;17063;50.892;4.702;2023-03-16T00:24:58;5.30;;;2.10;;
30247;SDS011;17063;50.892;4.702;2023-03-16T00:27:28;3.53;;;2.00;;
30247;SDS011;17063;50.892;4.702;2023-03-16T00:29:57;4.87;;;2.10;;
30247;SDS011;17063;50.892;4.702;2023-03-16T00:32:30;2.63;;;1.90;;
30247;SDS011;17063;50.892;4.702;2023-03-16T00:34:59;5.80;;;1.90;;
30247;SDS011;17063;50.892;4.702;2023-03-16T00:37:30;3.10;;;1.70;;
30247;SDS011;17063;50.892;4.702;2023-03-16T00:39:58;5.23;;;2.30;;
30247;SDS011;17063;50.892;4.702;2023-03-16T00:45:24;3.03;;;2.17;;
30247;SDS011;17063;50.892;4.702;2023-03-16T00:47:51;3.50;;;2.17;;
30247;SDS011;17063;50.892;4.702;2023-03-16T00:50:19;3.73;;;1.90;;
30247;SDS011;17063;50.892;4.702;2023-03-16T00:52:47;4.67;;;2.23;;
30247;SDS011;17063;50.892;4.702;2023-03-16T00:55:14;2.83;;;1.80;;
30247;SDS011;17063;50.892;4.702;2023-03-16T00:57:41;3.03;;;1.70;;
30247;SDS011;17063;50.892;4.702;2023-03-16T01:00:08;2.27;;;1.80;;
30247;SDS011;17063;50.892;4.702;2023-03-16T01:02:38;3.13;;;2.20;;
30247;SDS011;17063;50.892;4.702;2023-03-16T01:05:05;4.07;;;2.07;;
30247;SDS011;17063;50.892;4.702;2023-03-16T01:07:32;4.97;;;2.27;;
30247;SDS011;17063;50.892;4.702;2023-03-16T01:10:02;4.93;;;1.90;;
30247;SDS011;17063;50.892;4.702;2023-03-16T01:12:29;3.17;;;2.40;;
30247;SDS011;17063;50.892;4.702;2023-03-16T01:14:56;3.43;;;1.70;;
30247;SDS011;17063;50.892;4.702;2023-03-16T01:17:25;4.33;;;1.83;;
30247;SDS011;17063;50.892;4.702;2023-03-16T01:19:52;2.83;;;1.87;;
30247;SDS011;17063;50.892;4.702;2023-03-16T01:22:19;4.67;;;1.90;;
30247;SDS011;17063;50.892;4.702;2023-03-16T01:24:46;7.20;;;2.10;;
30247;SDS011;17063;50.892;4.702;2023-03-16T01:27:13;4.20;;;1.80;;
30247;SDS011;17063;50.892;4.702;2023-03-16T01:29:41;3.93;;;1.80;;
30247;SDS011;17063;50.892;4.702;2023-03-16T01:32:09;4.70;;;1.77;;
30247;SDS011;17063;50.892;4.702;2023-03-16T01:34:37;2.67;;;1.90;;
30247;SDS011;17063;50.892;4.702;2023-03-16T01:37:04;8.70;;;1.70;;
30247;SDS011;17063;50.892;4.702;2023-03-16T01:39:39;3.87;;;1.57;;
30247;SDS011;17063;50.892;4.702;2023-03-16T01:42:07;4.50;;;1.60;;
30247;SDS011;17063;50.892;4.702;2023-03-16T01:47:21;5.63;;;1.87;;
30247;SDS011;17063;50.892;4.702;2023-03-16T01:49:50;3.60;;;1.50;;
30247;SDS011;17063;50.892;4.702;2023-03-16T01:52:24;3.30;;;1.37;;
30247;SDS011;17063;50.892;4.702;2023-03-16T01:54:54;4.33;;;1.70;;
30247;SDS011;17063;50.892;4.702;2023-03-16T01:57:36;3.63;;;1.80;;
30247;SDS011;17063;50.892;4.702;2023-03-16T02:00:07;3.23;;;1.63;;
30247;SDS011;17063;50.892;4.702;2023-03-16T02:02:52;3.70;;;2.07;;
30247;SDS011;17063;50.892;4.702;2023-03-16T02:05:30;2.93;;;1.57;;
30247;SDS011;17063;50.892;4.702;2023-03-16T02:07:59;8.37;;;1.70;;
30247;SDS011;17063;50.892;4.702;2023-03-16T02:10:28;5.33;;;1.50;;
30247;SDS011;17063;50.892;4.702;2023-03-16T02:12:56;4.23;;;1.30;;
30247;SDS011;17063;50.892;4.702;2023-03-16T02:15:24;4.90;;;1.80;;
30247;SDS011;17063;50.892;4.702;2023-03-16T02:17:52;7.20;;;2.00;;
30247;SDS011;17063;50.892;4.702;2023-03-16T02:23:08;4.23;;;2.13;;
30247;SDS011;17063;50.892;4.702;2023-03-16T02:25:47;4.00;;;1.63;;
30247;SDS011;17063;50.892;4.702;2023-03-16T02:31:23;3.53;;;1.63;;
30247;SDS011;17063;50.892;4.702;2023-03-16T02:33:53;6.23;;;1.63;;
30247;SDS011;17063;50.892;4.702;2023-03-16T02:36:20;4.93;;;1.87;;
30247;SDS011;17063;50.892;4.702;2023-03-16T02:38:47;3.03;;;1.63;;
30247;SDS011;17063;50.892;4.702;2023-03-16T02:41:17;3.23;;;1.60;;
30247;SDS011;17063;50.892;4.702;2023-03-16T02:43:57;7.47;;;1.53;;
30247;SDS011;17063;50.892;4.702;2023-03-16T02:46:29;4.37;;;1.70;;
30247;SDS011;17063;50.892;4.702;2023-03-16T02:49:07;6.77;;;1.80;;
30247;SDS011;17063;50.892;4.702;2023-03-16T02:51:43;6.60;;;2.00;;
30247;SDS011;17063;50.892;4.702;2023-03-16T02:54:11;2.60;;;1.40;;
30247;SDS011;17063;50.892;4.702;2023-03-16T02:56:39;1.53;;;1.43;;
30247;SDS011;17063;50.892;4.702;2023-03-16T02:59:07;4.77;;;1.60;;
30247;SDS011;17063;50.892;4.702;2023-03-16T03:01:35;3.27;;;1.53;;
30247;SDS011;17063;50.892;4.702;2023-03-16T03:04:02;1.33;;;1.20;;
30247;SDS011;17063;50.892;4.702;2023-03-16T03:06:30;3.30;;;1.70;;
30247;SDS011;17063;50.892;4.702;2023-03-16T03:08:59;3.23;;;1.30;;
30247;SDS011;17063;50.892;4.702;2023-03-16T03:11:28;4.90;;;1.67;;
30247;SDS011;17063;50.892;4.702;2023-03-16T03:13:55;5.90;;;1.67;;
30247;SDS011;17063;50.892;4.702;2023-03-16T03:16:24;5.93;;;1.90;;
30247;SDS011;17063;50.892;4.702;2023-03-16T03:18:53;3.30;;;1.70;;
30247;SDS011;17063;50.892;4.702;2023-03-16T03:21:20;5.70;;;1.50;;
30247;SDS011;17063;50.892;4.702;2023-03-16T03:23:47;7.30;;;1.87;;
30247;SDS011;17063;50.892;4.702;2023-03-16T03:26:14;3.83;;;1.70;;
30247;SDS011;17063;50.892;4.702;2023-03-16T03:28:43;7.00;;;1.90;;
30247;SDS011;17063;50.892;4.702;2023-03-16T03:31:21;3.57;;;1.80;;
30247;SDS011;17063;50.892;4.702;2023-03-16T03:33:49;3.20;;;1.70;;
30247;SDS011;17063;50.892;4.702;2023-03-16T03:36:16;4.93;;;1.67;;
30247;SDS011;17063;50.892;4.702;2023-03-16T03:38:44;6.17;;;1.90;;
30247;SDS011;17063;50.892;4.702;2023-03-16T03:41:11;3.00;;;1.43;;
30247;SDS011;17063;50.892;4.702;2023-03-16T03:43:38;4.50;;;1.67;;
30247;SDS011;17063;50.892;4.702;2023-03-16T03:46:11;5.40;;;1.70;;
30247;SDS011;17063;50.892;4.702;2023-03-16T03:48:39;7.17;;;2.00;;
30247;SDS011;17063;50.892;4.702;2023-03-16T03:51:05;3.90;;;1.90;;
30247;SDS011;17063;50.892;4.702;2023-03-16T03:53:41;2.63;;;1.50;;
30247;SDS011;17063;50.892;4.702;2023-03-16T03:56:24;7.20;;;1.87;;
30247;SDS011;17063;50.892;4.702;2023-03-16T03:58:51;3.97;;;1.90;;
30247;SDS011;17063;50.892;4.702;2023-03-16T04:01:30;3.53;;;1.63;;
30247;SDS011;17063;50.892;4.702;2023-03-16T04:03:57;9.30;;;2.10;;
30247;SDS011;17063;50.892;4.702;2023-03-16T04:06:24;4.63;;;1.73;;
30247;SDS011;17063;50.892;4.702;2023-03-16T04:08:52;3.83;;;1.90;;
30247;SDS011;17063;50.892;4.702;2023-03-16T04:11:23;8.00;;;2.00;;
30247;SDS011;17063;50.892;4.702;2023-03-16T04:13:51;5.37;;;1.60;;
30247;SDS011;17063;50.892;4.702;2023-03-16T04:16:19;3.50;;;1.90;;
30247;SDS011;17063;50.892;4.702;2023-03-16T04:18:50;5.30;;;1.70;;
30247;SDS011;17063;50.892;4.702;2023-03-16T04:21:17;3.23;;;1.70;;
30247;SDS011;17063;50.892;4.702;2023-03-16T04:23:46;3.83;;;1.50;;
30247;SDS011;17063;50.892;4.702;2023-03-16T04:26:14;7.17;;;1.90;;
30247;SDS011;17063;50.892;4.702;2023-03-16T04:28:43;5.17;;;1.90;;
30247;SDS011;17063;50.892;4.702;2023-03-16T04:31:14;4.53;;;2.57;;
30247;SDS011;17063;50.892;4.702;2023-03-16T04:33:43;3.33;;;1.73;;
30247;SDS011;17063;50.892;4.702;2023-03-16T04:36:11;4.57;;;1.90;;
30247;SDS011;17063;50.892;4.702;2023-03-16T04:38:39;3.97;;;1.63;;
30247;SDS011;17063;50.892;4.702;2023-03-16T04:41:09;3.97;;;1.83;;
30247;SDS011;17063;50.892;4.702;2023-03-16T04:43:43;5.10;;;1.70;;
30247;SDS011;17063;50.892;4.702;2023-03-16T04:46:18;5.07;;;1.83;;
30247;SDS011;17063;50.892;4.702;2023-03-16T04:48:45;9.63;;;2.47;;
30247;SDS011;17063;50.892;4.702;2023-03-16T04:51:12;14.07;;;2.00;;
30247;SDS011;17063;50.892;4.702;2023-03-16T04:53:45;2.47;;;1.53;;
30247;SDS011;17063;50.892;4.702;2023-03-16T04:56:20;3.20;;;1.53;;
30247;SDS011;17063;50.892;4.702;2023-03-16T04:58:52;3.43;;;1.60;;
30247;SDS011;17063;50.892;4.702;2023-03-16T05:01:23;5.57;;;1.80;;
30247;SDS011;17063;50.892;4.702;2023-03-16T05:03:54;3.07;;;1.50;;
30247;SDS011;17063;50.892;4.702;2023-03-16T05:06:25;8.27;;;2.20;;
30247;SDS011;17063;50.892;4.702;2023-03-16T05:08:53;4.37;;;1.83;;
30247;SDS011;17063;50.892;4.702;2023-03-16T05:11:20;2.87;;;1.90;;
30247;SDS011;17063;50.892;4.702;2023-03-16T05:13:54;5.80;;;1.77;;
30247;SDS011;17063;50.892;4.702;2023-03-16T05:16:21;2.67;;;1.50;;
30247;SDS011;17063;50.892;4.702;2023-03-16T05:18:49;5.27;;;1.80;;
30247;SDS011;17063;50.892;4.702;2023-03-16T05:21:18;6.00;;;1.93;;
30247;SDS011;17063;50.892;4.702;2023-03-16T05:23:57;6.23;;;1.53;;
30247;SDS011;17063;50.892;4.702;2023-03-16T05:26:25;3.60;;;1.83;;
30247;SDS011;17063;50.892;4.702;2023-03-16T05:28:52;4.43;;;1.70;;
30247;SDS011;17063;50.892;4.702;2023-03-16T05:31:23;5.37;;;1.50;;
30247;SDS011;17063;50.892;4.702;2023-03-16T05:33:56;5.20;;;1.80;;
30247;SDS011;17063;50.892;4.702;2023-03-16T05:36:24;3.33;;;1.40;;
30247;SDS011;17063;50.892;4.702;2023-03-16T05:38:55;4.70;;;2.00;;
30247;SDS011;17063;50.892;4.702;2023-03-16T05:41:29;8.87;;;1.93;;
30247;SDS011;17063;50.892;4.702;2023-03-16T05:44:22;5.10;;;1.97;;
30247;SDS011;17063;50.892;4.702;2023-03-16T05:47:22;4.57;;;1.80;;
30247;SDS011;17063;50.892;4.702;2023-03-16T05:49:53;9.83;;;2.13;;
30247;SDS011;17063;50.892;4.702;2023-03-16T05:52:31;4.93;;;1.80;;
30247;SDS011;17063;50.892;4.702;2023-03-16T05:55:04;4.47;;;1.80;;
30247;SDS011;17063;50.892;4.702;2023-03-16T05:57:32;5.00;;;1.50;;
30247;SDS011;17063;50.892;4.702;2023-03-16T06:00:00;9.37;;;1.73;;
30247;SDS011;17063;50.892;4.702;2023-03-16T06:02:37;3.20;;;1.70;;
30247;SDS011;17063;50.892;4.702;2023-03-16T06:05:04;6.57;;;1.53;;
30247;SDS011;17063;50.892;4.702;2023-03-16T06:07:35;4.33;;;1.60;;
30247;SDS011;17063;50.892;4.702;2023-03-16T06:10:01;4.27;;;1.40;;
30247;SDS011;17063;50.892;4.702;2023-03-16T06:12:31;8.83;;;1.73;;
30247;SDS011;17063;50.892;4.702;2023-03-16T06:15:00;4.77;;;2.00;;
30247;SDS011;17063;50.892;4.702;2023-03-16T06:17:28;5.50;;;1.50;;
30247;SDS011;17063;50.892;4.702;2023-03-16T06:19:56;4.93;;;2.07;;
30247;SDS011;17063;50.892;4.702;2023-03-16T06:22:23;4.60;;;1.87;;
30247;SDS011;17063;50.892;4.702;2023-03-16T06:24:50;4.20;;;1.63;;
30247;SDS011;17063;50.892;4.702;2023-03-16T06:27:18;3.43;;;1.63;;
30247;SDS011;17063;50.892;4.702;2023-03-16T06:30:04;4.40;;;1.33;;
30247;SDS011;17063;50.892;4.702;2023-03-16T06:32:33;3.27;;;1.77;;
30247;SDS011;17063;50.892;4.702;2023-03-16T06:35:01;5.57;;;1.50;;
30247;SDS011;17063;50.892;4.702;2023-03-16T06:37:30;4.00;;;1.60;;
30247;SDS011;17063;50.892;4.702;2023-03-16T06:40:00;4.93;;;1.80;;
30247;SDS011;17063;50.892;4.702;2023-03-16T06:42:27;2.87;;;1.60;;
30247;SDS011;17063;50.892;4.702;2023-03-16T06:44:55;3.63;;;1.60;;
30247;SDS011;17063;50.892;4.702;2023-03-16T06:47:22;4.90;;;1.23;;
30247;SDS011;17063;50.892;4.702;2023-03-16T06:49:49;2.30;;;1.47;;
30247;SDS011;17063;50.892;4.702;2023-03-16T06:52:20;7.30;;;2.47;;
30247;SDS011;17063;50.892;4.702;2023-03-16T06:54:48;4.60;;;1.53;;
30247;SDS011;17063;50.892;4.702;2023-03-16T06:57:19;3.27;;;1.33;;
30247;SDS011;17063;50.892;4.702;2023-03-16T06:59:48;5.80;;;1.60;;
30247;SDS011;17063;50.892;4.702;2023-03-16T07:02:15;4.30;;;1.60;;
30247;SDS011;17063;50.892;4.702;2023-03-16T07:04:42;5.77;;;1.57;;
30247;SDS011;17063;50.892;4.702;2023-03-16T07:07:09;7.97;;;1.37;;
30247;SDS011;17063;50.892;4.702;2023-03-16T07:09:37;2.93;;;1.40;;
30247;SDS011;17063;50.892;4.702;2023-03-16T07:12:07;3.50;;;1.40;;
30247;SDS011;17063;50.892;4.702;2023-03-16T07:14:36;4.50;;;1.60;;
30247;SDS011;17063;50.892;4.702;2023-03-16T07:17:03;4.57;;;1.60;;
30247;SDS011;17063;50.892;4.702;2023-03-16T07:19:30;2.67;;;1.47;;
30247;SDS011;17063;50.892;4.702;2023-03-16T07:22:00;8.53;;;1.60;;
30247;SDS011;17063;50.892;4.702;2023-03-16T07:24:31;3.10;;;1.30;;
30247;SDS011;17063;50.892;4.702;2023-03-16T07:26:58;1.37;;;1.27;;
30247;SDS011;17063;50.892;4.702;2023-03-16T07:29:29;2.80;;;1.30;;
30247;SDS011;17063;50.892;4.702;2023-03-16T07:31:55;5.43;;;1.33;;
30247;SDS011;17063;50.892;4.702;2023-03-16T07:34:30;5.00;;;1.40;;
30247;SDS011;17063;50.892;4.702;2023-03-16T07:36:57;4.33;;;1.20;;
30247;SDS011;17063;50.892;4.702;2023-03-16T07:39:28;4.27;;;1.20;;
30247;SDS011;17063;50.892;4.702;2023-03-16T07:42:02;4.13;;;1.30;;
30247;SDS011;17063;50.892;4.702;2023-03-16T07:44:45;2.53;;;1.30;;
30247;SDS011;17063;50.892;4.702;2023-03-16T07:47:12;3.03;;;1.50;;
30247;SDS011;17063;50.892;4.702;2023-03-16T07:49:40;3.43;;;2.07;;
30247;SDS011;17063;50.892;4.702;2023-03-16T07:52:08;6.70;;;1.20;;
30247;SDS011;17063;50.892;4.702;2023-03-16T07:54:38;5.87;;;1.50;;
30247;SDS011;17063;50.892;4.702;2023-03-16T07:57:07;4.37;;;1.37;;
30247;SDS011;17063;50.892;4.702;2023-03-16T07:59:38;3.40;;;1.23;;
30247;SDS011;17063;50.892;4.702;2023-03-16T08:02:13;5.57;;;1.40;;
30247;SDS011;17063;50.892;4.702;2023-03-16T08:04:42;2.53;;;1.20;;
30247;SDS011;17063;50.892;4.702;2023-03-16T08:07:12;4.67;;;1.30;;
30247;SDS011;17063;50.892;4.702;2023-03-16T08:10:06;3.77;;;1.50;;
30247;SDS011;17063;50.892;4.702;2023-03-16T08:12:41;5.10;;;1.27;;
30247;SDS011;17063;50.892;4.702;2023-03-16T08:15:09;3.70;;;1.07;;
30247;SDS011;17063;50.892;4.702;2023-03-16T08:17:37;2.50;;;1.10;;
30247;SDS011;17063;50.892;4.702;2023-03-16T08:20:11;3.17;;;1.33;;
30247;SDS011;17063;50.892;4.702;2023-03-16T08:22:41;4.83;;;1.17;;
30247;SDS011;17063;50.892;4.702;2023-03-16T08:25:14;3.00;;;1.30;;
30247;SDS011;17063;50.892;4.702;2023-03-16T08:27:53;2.73;;;1.30;;
30247;SDS011;17063;50.892;4.702;2023-03-16T08:30:20;3.30;;;1.17;;
30247;SDS011;17063;50.892;4.702;2023-03-16T08:33:01;1.47;;;0.93;;
30247;SDS011;17063;50.892;4.702;2023-03-16T08:35:28;3.53;;;1.00;;
30247;SDS011;17063;50.892;4.702;2023-03-16T08:37:56;1.47;;;1.20;;
30247;SDS011;17063;50.892;4.702;2023-03-16T08:40:22;3.10;;;1.10;;
30247;SDS011;17063;50.892;4.702;2023-03-16T08:42:50;4.70;;;1.10;;
30247;SDS011;17063;50.892;4.702;2023-03-16T08:45:18;4.83;;;1.20;;
30247;SDS011;17063;50.892;4.702;2023-03-16T08:47:45;2.07;;;0.90;;
30247;SDS011;17063;50.892;4.702;2023-03-16T08:50:14;3.53;;;1.07;;
30247;SDS011;17063;50.892;4.702;2023-03-16T08:52:41;3.80;;;1.47;;
30247;SDS011;17063;50.892;4.702;2023-03-16T08:55:08;2.07;;;1.03;;
30247;SDS011;17063;50.892;4.702;2023-03-16T08:57:36;4.97;;;1.20;;
30247;SDS011;17063;50.892;4.702;2023-03-16T09:00:05;5.77;;;1.20;;
30247;SDS011;17063;50.892;4.702;2023-03-16T09:02:42;2.90;;;1.23;;
30247;SDS011;17063;50.892;4.702;2023-03-16T09:05:11;5.80;;;1.20;;
30247;SDS011;17063;50.892;4.702;2023-03-16T09:07:43;1.80;;;1.20;;
30247;SDS011;17063;50.892;4.702;2023-03-16T09:10:14;3.47;;;1.20;;
30247;SDS011;17063;50.892;4.702;2023-03-16T09:12:42;3.27;;;1.00;;
30247;SDS011;17063;50.892;4.702;2023-03-16T09:15:09;3.13;;;1.10;;
30247;SDS011;17063;50.892;4.702;2023-03-16T09:17:38;6.17;;;1.27;;
30247;SDS011;17063;50.892;4.702;2023-03-16T09:20:07;5.13;;;1.10;;
30247;SDS011;17063;50.892;4.702;2023-03-16T09:22:47;4.13;;;1.30;;
30247;SDS011;17063;50.892;4.702;2023-03-16T09:25:14;6.73;;;1.10;;
30247;SDS011;17063;50.892;4.702;2023-03-16T09:27:41;2.83;;;1.20;;
30247;SDS011;17063;50.892;4.702;2023-03-16T09:30:08;6.70;;;1.30;;
30247;SDS011;17063;50.892;4.702;2023-03-16T09:32:38;7.80;;;1.80;;
30247;SDS011;17063;50.892;4.702;2023-03-16T09:35:06;1.80;;;1.03;;
30247;SDS011;17063;50.892;4.702;2023-03-16T09:37:33;5.50;;;1.17;;
30247;SDS011;17063;50.892;4.702;2023-03-16T09:40:19;5.23;;;1.20;;
30247;SDS011;17063;50.892;4.702;2023-03-16T09:48:27;3.73;;;1.50;;
30247;SDS011;17063;50.892;4.702;2023-03-16T09:50:59;2.43;;;1.20;;
30247;SDS011;17063;50.892;4.702;2023-03-16T09:53:32;3.53;;;1.40;;
30247;SDS011;17063;50.892;4.702;2023-03-16T09:56:01;2.73;;;1.23;;
30247;SDS011;17063;50.892;4.702;2023-03-16T09:58:32;2.23;;;1.03;;
30247;SDS011;17063;50.892;4.702;2023-03-16T10:06:17;5.93;;;1.20;;
30247;SDS011;17063;50.892;4.702;2023-03-16T10:08:48;3.93;;;1.23;;
30247;SDS011;17063;50.892;4.702;2023-03-16T10:11:21;1.83;;;0.97;;
30247;SDS011;17063;50.892;4.702;2023-03-16T10:14:00;1.70;;;1.20;;
30247;SDS011;17063;50.892;4.702;2023-03-16T10:16:35;3.27;;;1.00;;
30247;SDS011;17063;50.892;4.702;2023-03-16T10:19:12;8.67;;;1.60;;
30247;SDS011;17063;50.892;4.702;2023-03-16T10:21:46;1.63;;;0.70;;
30247;SDS011;17063;50.892;4.702;2023-03-16T10:24:16;4.80;;;0.90;;
30247;SDS011;17063;50.892;4.702;2023-03-16T10:27:18;2.37;;;1.10;;
30247;SDS011;17063;50.892;4.702;2023-03-16T10:29:48;5.50;;;2.10;;
30247;SDS011;17063;50.892;4.702;2023-03-16T10:32:15;4.03;;;1.00;;
30247;SDS011;17063;50.892;4.702;2023-03-16T10:34:46;2.37;;;0.97;;
30247;SDS011;17063;50.892;4.702;2023-03-16T10:37:18;2.07;;;1.10;;
30247;SDS011;17063;50.892;4.702;2023-03-16T10:39:47;7.60;;;1.00;;
30247;SDS011;17063;50.892;4.702;2023-03-16T10:42:15;3.37;;;1.10;;
30247;SDS011;17063;50.892;4.702;2023-03-16T10:44:43;1.00;;;0.80;;
30247;SDS011;17063;50.892;4.702;2023-03-16T10:47:29;1.57;;;0.80;;
30247;SDS011;17063;50.892;4.702;2023-03-16T10:49:58;1.57;;;0.87;;
30247;SDS011;17063;50.892;4.702;2023-03-16T10:52:33;1.07;;;0.60;;
30247;SDS011;17063;50.892;4.702;2023-03-16T10:55:08;5.73;;;0.87;;
30247;SDS011;17063;50.892;4.702;2023-03-16T10:57:47;2.00;;;0.90;;
30247;SDS011;17063;50.892;4.702;2023-03-16T11:00:24;2.60;;;0.60;;
30247;SDS011;17063;50.892;4.702;2023-03-16T11:02:54;4.23;;;0.70;;
30247;SDS011;17063;50.892;4.702;2023-03-16T11:07:49;2.50;;;1.20;;
30247;SDS011;17063;50.892;4.702;2023-03-16T11:10:33;1.90;;;0.67;;
30247;SDS011;17063;50.892;4.702;2023-03-16T11:13:18;2.60;;;1.10;;
30247;SDS011;17063;50.892;4.702;2023-03-16T11:18:29;4.10;;;0.90;;
30247;SDS011;17063;50.892;4.702;2023-03-16T11:20:59;7.47;;;0.97;;
30247;SDS011;17063;50.892;4.702;2023-03-16T11:23:32;2.90;;;1.10;;
30247;SDS011;17063;50.892;4.702;2023-03-16T11:26:01;1.83;;;1.00;;
30247;SDS011;17063;50.892;4.702;2023-03-16T11:33:33;1.77;;;0.80;;
30247;SDS011;17063;50.892;4.702;2023-03-16T11:39:09;5.53;;;0.90;;
30247;SDS011;17063;50.892;4.702;2023-03-16T11:41:51;2.27;;;0.97;;
30247;SDS011;17063;50.892;4.702;2023-03-16T11:50:13;3.60;;;1.07;;
30247;SDS011;17063;50.892;4.702;2023-03-16T12:01:16;2.17;;;0.93;;
30247;SDS011;17063;50.892;4.702;2023-03-16T12:06:29;1.47;;;0.80;;
30247;SDS011;17063;50.892;4.702;2023-03-16T12:12:28;4.60;;;0.87;;
30247;SDS011;17063;50.892;4.702;2023-03-16T12:15:13;2.43;;;1.10;;
30247;SDS011;17063;50.892;4.702;2023-03-16T12:17:51;5.00;;;1.20;;
30247;SDS011;17063;50.892;4.702;2023-03-16T12:20:22;1.60;;;0.93;;
30247;SDS011;17063;50.892;4.702;2023-03-16T12:22:53;4.63;;;2.30;;
30247;SDS011;17063;50.892;4.702;2023-03-16T12:25:25;4.23;;;1.40;;
30247;SDS011;17063;50.892;4.702;2023-03-16T12:27:58;4.47;;;1.67;;
30247;SDS011;17063;50.892;4.702;2023-03-16T12:39:13;2.50;;;0.90;;
30247;SDS011;17063;50.892;4.702;2023-03-16T12:44:31;3.90;;;1.00;;
30247;SDS011;17063;50.892;4.702;2023-03-16T12:50:07;3.67;;;0.80;;
30247;SDS011;17063;50.892;4.702;2023-03-16T12:57:50;3.13;;;1.00;;
30247;SDS011;17063;50.892;4.702;2023-03-16T13:00:17;6.43;;;2.17;;
30247;SDS011;17063;50.892;4.702;2023-03-16T13:02:53;5.23;;;1.00;;
30247;SDS011;17063;50.892;4.702;2023-03-16T13:05:28;1.43;;;1.10;;
30247;SDS011;17063;50.892;4.702;2023-03-16T13:08:08;3.93;;;1.00;;
30247;SDS011;17063;50.892;4.702;2023-03-16T13:10:37;4.73;;;1.40;;
30247;SDS011;17063;50.892;4.702;2023-03-16T13:13:14;2.30;;;0.93;;
30247;SDS011;17063;50.892;4.702;2023-03-16T13:15:44;9.60;;;1.13;;
30247;SDS011;17063;50.892;4.702;2023-03-16T13:23:23;5.50;;;0.97;;
30247;SDS011;17063;50.892;4.702;2023-03-16T13:26:15;2.67;;;1.10;;
30247;SDS011;17063;50.892;4.702;2023-03-16T13:28:44;1.80;;;1.03;;
30247;SDS011;17063;50.892;4.702;2023-03-16T13:34:14;1.60;;;0.80;;
30247;SDS011;17063;50.892;4.702;2023-03-16T13:36:59;5.47;;;1.10;;
30247;SDS011;17063;50.892;4.702;2023-03-16T13:39:30;3.10;;;0.80;;
30247;SDS011;17063;50.892;4.702;2023-03-16T13:42:02;2.33;;;1.00;;
30247;SDS011;17063;50.892;4.702;2023-03-16T13:44:38;1.90;;;1.13;;
30247;SDS011;17063;50.892;4.702;2023-03-16T13:47:06;3.63;;;1.00;;
30247;SDS011;17063;50.892;4.702;2023-03-16T13:49:44;1.27;;;0.77;;
30247;SDS011;17063;50.892;4.702;2023-03-16T13:52:26;4.57;;;1.50;;
30247;SDS011;17063;50.892;4.702;2023-03-16T13:54:58;0.83;;;0.80;;
30247;SDS011;17063;50.892;4.702;2023-03-16T13:57:31;0.83;;;0.83;;
30247;SDS011;17063;50.892;4.702;2023-03-16T14:02:44;0.73;;;0.73;;
30247;SDS011;17063;50.892;4.702;2023-03-16T14:05:26;1.20;;;0.60;;
30247;SDS011;17063;50.892;4.702;2023-03-16T14:07:55;3.17;;;0.97;;
30247;SDS011;17063;50.892;4.702;2023-03-16T14:10:23;1.13;;;0.80;;
30247;SDS011;17063;50.892;4.702;2023-03-16T14:12:54;1.00;;;0.83;;
30247;SDS011;17063;50.892;4.702;2023-03-16T14:15:26;4.27;;;1.27;;
30247;SDS011;17063;50.892;4.702;2023-03-16T14:17:53;5.17;;;1.67;;
30247;SDS011;17063;50.892;4.702;2023-03-16T14:20:38;5.60;;;1.40;;
30247;SDS011;17063;50.892;4.702;2023-03-16T14:23:17;4.13;;;1.33;;
30247;SDS011;17063;50.892;4.702;2023-03-16T14:25:50;1.77;;;0.80;;
30247;SDS011;17063;50.892;4.702;2023-03-16T14:28:20;1.77;;;1.00;;
30247;SDS011;17063;50.892;4.702;2023-03-16T14:30:53;5.87;;;0.93;;
30247;SDS011;17063;50.892;4.702;2023-03-16T14:33:28;1.80;;;1.00;;
30247;SDS011;17063;50.892;4.702;2023-03-16T14:36:06;2.80;;;0.90;;
30247;SDS011;17063;50.892;4.702;2023-03-16T14:38:44;1.47;;;0.77;;
30247;SDS011;17063;50.892;4.702;2023-03-16T14:41:24;1.90;;;0.70;;
30247;SDS011;17063;50.892;4.702;2023-03-16T14:43:56;3.03;;;0.90;;
30247;SDS011;17063;50.892;4.702;2023-03-16T14:46:26;3.30;;;0.80;;
30247;SDS011;17063;50.892;4.702;2023-03-16T14:48:58;6.20;;;1.20;;
30247;SDS011;17063;50.892;4.702;2023-03-16T14:51:28;6.07;;;0.83;;
30247;SDS011;17063;50.892;4.702;2023-03-16T14:53:57;7.37;;;1.30;;
30247;SDS011;17063;50.892;4.702;2023-03-16T14:56:30;1.67;;;0.80;;
30247;SDS011;17063;50.892;4.702;2023-03-16T14:58:59;0.90;;;0.80;;
30247;SDS011;17063;50.892;4.702;2023-03-16T15:01:26;3.73;;;1.00;;
30247;SDS011;17063;50.892;4.702;2023-03-16T15:03:53;4.10;;;0.83;;
30247;SDS011;17063;50.892;4.702;2023-03-16T15:06:20;1.47;;;0.90;;
30247;SDS011;17063;50.892;4.702;2023-03-16T15:08:48;1.03;;;0.87;;
30247;SDS011;17063;50.892;4.702;2023-03-16T15:11:19;1.70;;;1.00;;
30247;SDS011;17063;50.892;4.702;2023-03-16T15:13:47;1.63;;;0.97;;
30247;SDS011;17063;50.892;4.702;2023-03-16T15:16:14;7.83;;;0.93;;
30247;SDS011;17063;50.892;4.702;2023-03-16T15:18:41;2.20;;;0.70;;
30247;SDS011;17063;50.892;4.702;2023-03-16T15:21:16;6.53;;;0.93;;
30247;SDS011;17063;50.892;4.702;2023-03-16T15:23:46;3.10;;;1.17;;
30247;SDS011;17063;50.892;4.702;2023-03-16T15:26:14;3.63;;;0.80;;
30247;SDS011;17063;50.892;4.702;2023-03-16T15:28:42;1.57;;;1.07;;
30247;SDS011;17063;50.892;4.702;2023-03-16T15:31:10;2.07;;;0.70;;
30247;SDS011;17063;50.892;4.702;2023-03-16T15:33:39;1.37;;;0.90;;
30247;SDS011;17063;50.892;4.702;2023-03-16T15:36:12;1.60;;;1.00;;
30247;SDS011;17063;50.892;4.702;2023-03-16T15:38:42;2.63;;;0.90;;
30247;SDS011;17063;50.892;4.702;2023-03-16T15:41:11;1.00;;;0.83;;
30247;SDS011;17063;50.892;4.702;2023-03-16T15:43:39;1.03;;;0.70;;
30247;SDS011;17063;50.892;4.702;2023-03-16T15:46:06;2.63;;;1.03;;
30247;SDS011;17063;50.892;4.702;2023-03-16T15:48:33;1.83;;;0.93;;
30247;SDS011;17063;50.892;4.702;2023-03-16T15:51:05;2.13;;;0.70;;
30247;SDS011;17063;50.892;4.702;2023-03-16T15:53:38;0.70;;;0.60;;
30247;SDS011;17063;50.892;4.702;2023-03-16T15:56:08;2.53;;;0.80;;
30247;SDS011;17063;50.892;4.702;2023-03-16T15:58:38;3.30;;;1.10;;
30247;SDS011;17063;50.892;4.702;2023-03-16T16:01:07;1.10;;;0.80;;
30247;SDS011;17063;50.892;4.702;2023-03-16T16:03:35;1.43;;;0.73;;
30247;SDS011;17063;50.892;4.702;2023-03-16T16:06:01;3.83;;;1.30;;
30247;SDS011;17063;50.892;4.702;2023-03-16T16:08:29;0.70;;;0.70;;
30247;SDS011;17063;50.892;4.702;2023-03-16T16:10:56;10.17;;;1.30;;
30247;SDS011;17063;50.892;4.702;2023-03-16T16:13:27;3.20;;;0.90;;
30247;SDS011;17063;50.892;4.702;2023-03-16T16:16:10;2.47;;;1.10;;
30247;SDS011;17063;50.892;4.702;2023-03-16T16:18:42;1.37;;;0.60;;
30247;SDS011;17063;50.892;4.702;2023-03-16T16:21:16;3.57;;;1.10;;
30247;SDS011;17063;50.892;4.702;2023-03-16T16:23:44;1.47;;;1.30;;
30247;SDS011;17063;50.892;4.702;2023-03-16T16:26:33;2.60;;;0.80;;
30247;SDS011;17063;50.892;4.702;2023-03-16T16:29:18;3.63;;;1.13;;
30247;SDS011;17063;50.892;4.702;2023-03-16T16:31:49;2.80;;;0.83;;
30247;SDS011;17063;50.892;4.702;2023-03-16T16:34:18;1.57;;;0.90;;
30247;SDS011;17063;50.892;4.702;2023-03-16T16:36:53;3.00;;;0.93;;